Time;durP1;ratioP1;P1;durP2;ratioP2;P2;SDS_P1;SDS_P2;PMS_P1;PMS_P2;Temp;Humidity;BMP_temperature;BMP_pressure;BME280_temperature;BME280_humidity;BME280_pressure;Samples;Min_cycle;Max_cycle;Signal;HPM_P1;HPM_P2
2021/09/02 00:00:53;;;;;;;20.55;11.60;;;16.00;77.70;;;;;;4982140;28;20032;-84
2021/09/02 00:03:20;;;;;;;21.05;12.32;;;15.90;77.70;;;;;;4978877;28;20058;-93
2021/09/02 00:05:47;;;;;;;16.63;12.43;;;15.90;77.70;;;;;;4979651;28;20047;-86
2021/09/02 00:08:14;;;;;;;19.52;11.98;;;15.90;77.70;;;;;;4982833;28;20039;-83
2021/09/02 00:10:41;;;;;;;16.65;11.23;;;15.90;77.60;;;;;;4982546;28;20043;-85
2021/09/02 00:13:09;;;;;;;14.00;9.80;;;15.90;77.60;;;;;;4981660;28;20082;-88
2021/09/02 00:15:36;;;;;;;16.23;11.93;;;15.80;77.60;;;;;;4979743;28;20036;-92
2021/09/02 00:18:03;;;;;;;21.30;12.57;;;15.80;77.60;;;;;;4981451;28;20034;-85
2021/09/02 00:20:31;;;;;;;18.38;12.15;;;15.70;77.50;;;;;;4982994;28;20058;-85
2021/09/02 00:22:57;;;;;;;19.75;12.35;;;15.70;77.50;;;;;;4982315;28;20042;-85
2021/09/02 00:25:24;;;;;;;15.57;10.98;;;15.70;77.50;;;;;;4982373;28;20055;-83
2021/09/02 00:27:51;;;;;;;18.00;11.20;;;15.70;77.60;;;;;;4982173;28;20039;-84
2021/09/02 00:30:18;;;;;;;18.17;11.38;;;15.60;77.60;;;;;;4981985;28;20031;-83
2021/09/02 00:32:45;;;;;;;17.77;10.50;;;15.60;77.60;;;;;;4982354;28;20031;-83
2021/09/02 00:35:12;;;;;;;16.75;10.90;;;15.60;77.50;;;;;;4982557;28;20067;-83
2021/09/02 00:37:39;;;;;;;15.68;9.48;;;15.50;77.50;;;;;;4982046;28;20035;-83
2021/09/02 00:40:07;;;;;;;14.27;9.32;;;15.50;77.50;;;;;;4982111;28;20031;-84
2021/09/02 00:42:34;;;;;;;14.07;10.57;;;15.50;77.40;;;;;;4982019;28;20039;-84
2021/09/02 00:45:02;;;;;;;13.07;10.13;;;15.40;77.40;;;;;;4996978;28;20054;-83
2021/09/02 00:47:29;;;;;;;13.13;9.25;;;15.50;77.50;;;;;;4982493;28;20042;-83
2021/09/02 00:49:56;;;;;;;16.95;10.05;;;15.40;77.50;;;;;;4981900;28;20071;-82
2021/09/02 00:52:26;;;;;;;14.57;10.40;;;15.40;77.50;;;;;;4981774;28;20061;-83
2021/09/02 00:55:04;;;;;;;12.43;8.70;;;15.40;77.50;;;;;;4981838;28;20031;-83
2021/09/02 00:57:34;;;;;;;16.25;9.60;;;15.40;77.40;;;;;;4981687;28;20055;-83
2021/09/02 01:00:11;;;;;;;15.50;10.57;;;15.40;77.40;;;;;;4981582;28;20051;-83
2021/09/02 01:02:40;;;;;;;16.40;9.82;;;15.40;77.50;;;;;;4978618;28;20067;-83
2021/09/02 01:05:08;;;;;;;16.05;10.55;;;15.40;77.50;;;;;;4997238;28;20050;-83
2021/09/02 01:07:35;;;;;;;15.77;11.25;;;15.40;77.50;;;;;;4981557;28;20063;-83
2021/09/02 01:10:04;;;;;;;22.92;10.82;;;15.40;77.60;;;;;;4981527;28;20055;-83
2021/09/02 01:12:32;;;;;;;17.35;10.55;;;15.30;77.60;;;;;;4981395;28;20031;-84
2021/09/02 01:15:20;;;;;;;17.67;9.90;;;15.30;77.60;;;;;;4997090;28;20051;-83
2021/09/02 01:17:49;;;;;;;18.27;10.93;;;15.30;77.60;;;;;;4978925;28;20039;-84
2021/09/02 01:20:20;;;;;;;14.73;9.88;;;15.30;77.60;;;;;;4997310;28;20063;-83
2021/09/02 01:22:48;;;;;;;14.48;9.68;;;15.30;77.50;;;;;;4981504;28;20035;-83
2021/09/02 01:25:21;;;;;;;14.27;8.80;;;15.20;77.40;;;;;;4981280;28;20051;-83
2021/09/02 01:27:57;;;;;;;13.85;8.52;;;15.20;77.30;;;;;;4980917;28;20059;-83
2021/09/02 01:30:24;;;;;;;12.15;8.77;;;15.20;77.20;;;;;;4996801;28;20031;-83
2021/09/02 01:32:52;;;;;;;15.40;10.55;;;15.10;77.20;;;;;;4981408;28;20035;-84
2021/09/02 01:35:21;;;;;;;13.25;9.57;;;15.10;77.20;;;;;;4981662;28;20031;-83
2021/09/02 01:38:07;;;;;;;15.27;10.38;;;15.10;77.20;;;;;;4980865;28;20031;-83
2021/09/02 01:40:37;;;;;;;18.70;12.30;;;15.00;77.20;;;;;;4980760;28;20063;-83
2021/09/02 01:43:05;;;;;;;16.35;11.18;;;14.90;77.20;;;;;;4980584;28;20034;-83
2021/09/02 01:45:32;;;;;;;15.95;9.82;;;14.90;77.20;;;;;;4980672;28;20035;-84
2021/09/02 01:48:01;;;;;;;20.75;12.50;;;14.90;77.20;;;;;;4980998;28;20028;-83
2021/09/02 01:50:29;;;;;;;18.60;12.52;;;14.80;77.30;;;;;;4981340;28;20039;-83
2021/09/02 01:52:58;;;;;;;19.90;12.07;;;14.80;77.30;;;;;;4995075;28;20039;-83
2021/09/02 01:55:26;;;;;;;24.83;13.32;;;14.80;77.40;;;;;;4980674;28;20067;-83
2021/09/02 01:57:53;;;;;;;21.45;13.25;;;14.70;77.40;;;;;;4979817;28;20039;-83
2021/09/02 02:00:21;;;;;;;21.35;12.88;;;14.70;77.50;;;;;;4980562;28;20047;-83
2021/09/02 02:02:49;;;;;;;21.33;14.13;;;14.60;77.60;;;;;;4980926;28;20062;-84
2021/09/02 02:05:16;;;;;;;21.17;12.55;;;14.60;77.60;;;;;;4980543;28;20051;-84
2021/09/02 02:07:44;;;;;;;19.98;12.70;;;14.50;77.70;;;;;;4980390;28;20063;-83
2021/09/02 02:10:22;;;;;;;19.80;12.82;;;14.60;77.80;;;;;;4980407;28;20075;-83
2021/09/02 02:12:49;;;;;;;25.88;13.13;;;14.50;77.80;;;;;;4980408;28;20031;-83
2021/09/02 02:15:16;;;;;;;17.90;12.30;;;14.50;77.90;;;;;;4980260;28;20035;-84
2021/09/02 02:17:44;;;;;;;14.38;10.70;;;14.50;78.00;;;;;;4980425;28;20046;-84
2021/09/02 02:20:12;;;;;;;17.83;11.88;;;14.50;78.00;;;;;;4979668;28;20063;-83
2021/09/02 02:22:39;;;;;;;18.85;12.13;;;14.50;78.00;;;;;;4980289;28;20035;-83
2021/09/02 02:25:08;;;;;;;18.45;11.65;;;14.40;78.00;;;;;;4978755;28;20062;-83
2021/09/02 02:27:36;;;;;;;16.33;11.07;;;14.40;78.00;;;;;;4980202;28;20027;-83
2021/09/02 02:30:05;;;;;;;20.27;11.40;;;14.40;78.00;;;;;;4980204;28;20031;-84
2021/09/02 02:32:32;;;;;;;17.13;10.85;;;14.40;77.80;;;;;;4980694;28;20047;-84
2021/09/02 02:35:00;;;;;;;17.50;11.23;;;14.40;77.80;;;;;;4980012;28;20031;-83
2021/09/02 02:37:27;;;;;;;17.77;12.27;;;14.40;77.80;;;;;;4979802;28;20038;-83
2021/09/02 02:39:54;;;;;;;15.82;9.43;;;14.30;77.90;;;;;;4979694;28;20062;-83
2021/09/02 02:42:22;;;;;;;18.15;11.57;;;14.30;77.90;;;;;;5073762;23;20026;-84
2021/09/02 02:44:49;;;;;;;18.17;10.77;;;14.30;77.80;;;;;;5041772;28;20045;-84
2021/09/02 02:47:16;;;;;;;19.98;11.73;;;14.20;77.80;;;;;;5058758;28;20033;-84
2021/09/02 02:49:43;;;;;;;23.50;13.80;;;14.20;77.70;;;;;;5056633;28;20033;-84
2021/09/02 02:52:09;;;;;;;17.77;11.95;;;14.20;77.80;;;;;;5040123;28;20033;-85
2021/09/02 02:54:36;;;;;;;19.70;12.60;;;14.20;77.80;;;;;;5056540;28;20029;-85
2021/09/02 02:57:04;;;;;;;15.93;10.73;;;14.10;77.90;;;;;;5056624;28;20045;-84
2021/09/02 02:59:31;;;;;;;21.73;12.18;;;14.10;78.00;;;;;;5058219;28;20039;-85
2021/09/02 03:01:58;;;;;;;22.75;12.60;;;14.10;78.00;;;;;;5056511;28;20037;-84
2021/09/02 03:04:25;;;;;;;19.23;12.63;;;14.10;78.10;;;;;;5056414;28;20051;-84
2021/09/02 03:06:52;;;;;;;22.00;11.93;;;14.00;78.10;;;;;;5052686;28;20029;-90
2021/09/02 03:09:19;;;;;;;15.77;11.63;;;14.00;78.10;;;;;;5055190;28;20056;-86
2021/09/02 03:11:46;;;;;;;20.67;11.95;;;14.00;78.20;;;;;;5057478;28;20030;-84
2021/09/02 03:14:13;;;;;;;17.00;11.75;;;14.00;78.20;;;;;;5057762;28;20060;-84
2021/09/02 03:16:39;;;;;;;21.58;11.52;;;13.90;78.20;;;;;;5054926;28;20064;-85
2021/09/02 03:19:06;;;;;;;22.88;11.90;;;13.90;78.20;;;;;;5056104;28;20064;-84
2021/09/02 03:21:33;;;;;;;24.27;12.20;;;13.90;78.10;;;;;;5056340;28;20060;-84
2021/09/02 03:24:00;;;;;;;14.43;10.25;;;13.90;78.10;;;;;;5056111;28;20041;-84
2021/09/02 03:26:27;;;;;;;17.08;10.95;;;13.90;77.90;;;;;;5058396;28;20045;-84
2021/09/02 03:28:54;;;;;;;17.98;11.75;;;13.90;77.90;;;;;;5056035;28;20021;-93
2021/09/02 03:31:21;;;;;;;17.95;11.20;;;13.90;77.80;;;;;;5039584;28;20030;-84
2021/09/02 03:33:48;;;;;;;19.33;12.75;;;13.80;77.70;;;;;;5056068;28;20042;-84
2021/09/02 03:36:15;;;;;;;15.98;10.85;;;13.80;77.80;;;;;;5039578;28;20033;-84
2021/09/02 03:38:42;;;;;;;19.17;12.07;;;13.80;77.80;;;;;;5057056;28;20053;-85
2021/09/02 03:41:08;;;;;;;15.85;9.68;;;13.80;77.80;;;;;;5056730;28;20041;-85
2021/09/02 03:43:35;;;;;;;17.83;10.63;;;13.70;77.80;;;;;;5055996;28;20036;-85
2021/09/02 03:46:02;;;;;;;21.80;13.20;;;13.70;77.70;;;;;;5055940;28;20030;-85
2021/09/02 03:48:29;;;;;;;19.45;11.63;;;13.70;77.70;;;;;;5056061;28;20030;-85
2021/09/02 03:50:56;;;;;;;16.55;11.40;;;13.70;77.80;;;;;;5055984;28;20105;-84
2021/09/02 03:53:23;;;;;;;22.83;13.73;;;13.60;77.80;;;;;;5057159;28;20033;-84
2021/09/02 03:55:49;;;;;;;20.52;12.65;;;13.60;77.80;;;;;;5037832;28;20056;-85
2021/09/02 03:58:16;;;;;;;19.98;14.25;;;13.60;77.80;;;;;;5054716;28;20030;-84
2021/09/02 04:00:43;;;;;;;18.67;12.32;;;13.50;77.90;;;;;;5055798;28;20046;-84
2021/09/02 04:03:10;;;;;;;20.10;12.35;;;13.50;78.10;;;;;;5056002;28;20036;-85
2021/09/02 04:05:37;;;;;;;21.55;12.80;;;13.50;78.10;;;;;;5057780;28;20065;-84
2021/09/02 04:08:04;;;;;;;32.55;15.43;;;13.50;78.10;;;;;;5053284;28;20072;-85
2021/09/02 04:10:31;;;;;;;27.40;15.07;;;13.50;78.10;;;;;;5039248;28;20052;-86
2021/09/02 04:12:58;;;;;;;21.65;14.15;;;13.40;78.10;;;;;;5055742;28;20045;-85
2021/09/02 04:15:25;;;;;;;22.67;12.77;;;13.50;78.20;;;;;;5055839;28;20025;-84
2021/09/02 04:17:52;;;;;;;20.17;13.30;;;13.50;78.20;;;;;;5055817;28;20117;-84
2021/09/02 04:20:19;;;;;;;24.75;12.80;;;13.40;78.30;;;;;;5057365;28;20064;-85
2021/09/02 04:22:46;;;;;;;18.75;11.35;;;13.40;78.20;;;;;;5042598;28;20050;-87
2021/09/02 04:25:12;;;;;;;24.20;14.38;;;13.50;78.10;;;;;;5059338;28;20052;-86
2021/09/02 04:27:39;;;;;;;24.73;12.70;;;13.50;78.10;;;;;;5059380;28;20033;-85
2021/09/02 04:30:06;;;;;;;19.98;12.73;;;13.40;78.10;;;;;;5026934;28;20080;-86
2021/09/02 04:32:33;;;;;;;17.15;11.25;;;13.40;78.10;;;;;;5040214;28;20037;-86
2021/09/02 04:35:00;;;;;;;19.35;12.73;;;13.40;78.10;;;;;;5059140;28;20087;-85
2021/09/02 04:37:28;;;;;;;15.55;11.23;;;13.40;78.10;;;;;;5057642;28;20030;-85
2021/09/02 04:39:54;;;;;;;16.98;12.32;;;13.40;78.00;;;;;;5058980;28;20064;-86
2021/09/02 04:42:21;;;;;;;15.75;10.20;;;13.40;77.90;;;;;;5058864;28;20064;-84
2021/09/02 04:44:48;;;;;;;18.52;12.38;;;13.40;77.80;;;;;;5042816;28;20091;-85
2021/09/02 04:47:15;;;;;;;14.98;11.60;;;13.40;77.70;;;;;;5043723;28;20034;-86
2021/09/02 04:49:42;;;;;;;16.50;11.38;;;13.40;77.60;;;;;;5041582;28;20049;-91
2021/09/02 04:52:09;;;;;;;15.23;11.85;;;13.30;77.40;;;;;;5057373;28;20045;-93
2021/09/02 04:54:36;;;;;;;18.77;11.73;;;13.30;77.40;;;;;;5037198;28;20033;-86
2021/09/02 04:57:03;;;;;;;20.70;12.70;;;13.30;77.40;;;;;;5058390;28;20029;-85
2021/09/02 04:59:30;;;;;;;19.60;12.07;;;13.20;77.30;;;;;;5043242;28;20037;-87
2021/09/02 05:01:56;;;;;;;18.13;11.15;;;13.20;77.20;;;;;;5058681;28;20083;-87
2021/09/02 05:04:24;;;;;;;16.20;11.25;;;13.20;77.20;;;;;;5058330;28;20029;-86
2021/09/02 05:06:51;;;;;;;17.85;11.77;;;13.10;77.20;;;;;;5058497;28;20030;-86
2021/09/02 05:09:18;;;;;;;16.58;11.50;;;13.10;77.20;;;;;;5058526;28;20033;-86
2021/09/02 05:11:44;;;;;;;18.27;11.52;;;13.00;77.00;;;;;;5059849;28;20038;-86
2021/09/02 05:14:11;;;;;;;15.32;11.32;;;13.00;77.10;;;;;;5059444;28;20034;-86
2021/09/02 05:16:38;;;;;;;15.57;9.82;;;13.00;77.10;;;;;;5057242;28;20038;-87
2021/09/02 05:19:05;;;;;;;18.30;11.73;;;13.00;77.10;;;;;;5057786;28;20045;-89
2021/09/02 05:21:32;;;;;;;16.90;10.63;;;12.90;77.00;;;;;;5058334;28;20041;-87
2021/09/02 05:23:59;;;;;;;16.42;11.40;;;12.90;76.90;;;;;;5058221;28;20058;-87
2021/09/02 05:26:26;;;;;;;17.58;11.65;;;12.90;76.90;;;;;;5059690;28;20038;-87
2021/09/02 05:28:53;;;;;;;17.13;11.75;;;12.90;76.80;;;;;;5040243;28;20033;-88
2021/09/02 05:31:20;;;;;;;19.13;12.18;;;12.90;76.90;;;;;;5056581;28;20040;-91
2021/09/02 05:33:47;;;;;;;19.75;11.05;;;12.90;77.00;;;;;;5057372;28;20029;-87
2021/09/02 05:36:14;;;;;;;18.02;12.52;;;12.90;77.10;;;;;;5055002;28;20067;-89
2021/09/02 05:38:41;;;;;;;18.27;13.13;;;12.80;77.20;;;;;;5041608;28;20057;-88
2021/09/02 05:41:08;;;;;;;22.67;13.98;;;12.80;77.40;;;;;;5055393;28;20029;-86
2021/09/02 05:43:35;;;;;;;18.38;12.95;;;12.80;77.60;;;;;;5037573;28;20553;-93
2021/09/02 05:46:02;;;;;;;30.42;16.40;;;12.80;77.90;;;;;;5053179;28;20029;-87
2021/09/02 05:48:29;;;;;;;28.10;15.30;;;12.80;78.20;;;;;;5034181;28;20053;-91
2021/09/02 05:50:55;;;;;;;29.17;16.20;;;12.80;78.40;;;;;;5039323;28;20045;-87
2021/09/02 05:53:23;;;;;;;25.50;14.18;;;12.80;78.60;;;;;;5041830;28;20040;-86
2021/09/02 05:55:50;;;;;;;24.38;15.30;;;12.80;78.80;;;;;;5055787;28;20033;-86
2021/09/02 05:58:18;;;;;;;29.92;17.10;;;12.80;78.90;;;;;;5055421;28;20045;-87
2021/09/02 06:00:45;;;;;;;31.85;16.33;;;12.90;79.00;;;;;;5041786;28;20037;-87
2021/09/02 06:03:12;;;;;;;27.90;17.92;;;12.90;79.10;;;;;;5038334;28;20041;-94
2021/09/02 06:05:40;;;;;;;30.92;16.63;;;12.90;79.20;;;;;;5035458;28;20049;-93
2021/09/02 06:08:06;;;;;;;32.95;17.55;;;12.90;79.30;;;;;;5030659;28;20103;-93
2021/09/02 06:10:34;;;;;;;25.02;16.05;;;12.90;79.40;;;;;;5050895;28;20037;-92
2021/09/02 06:13:01;;;;;;;21.50;13.60;;;12.90;79.50;;;;;;5035388;28;20080;-91
2021/09/02 06:15:28;;;;;;;32.63;15.95;;;12.90;79.50;;;;;;5050280;28;20060;-92
2021/09/02 06:17:55;;;;;;;27.90;16.15;;;13.00;79.50;;;;;;5032176;28;20076;-93
2021/09/02 06:20:24;;;;;;;29.15;15.40;;;13.00;79.60;;;;;;5048343;28;20037;-93
2021/09/02 06:22:52;;;;;;;31.27;16.15;;;13.00;79.70;;;;;;5048288;28;20045;-93
2021/09/02 06:25:19;;;;;;;33.13;15.57;;;13.00;79.70;;;;;;5026835;28;20054;-92
2021/09/02 06:27:46;;;;;;;25.38;16.42;;;13.10;79.80;;;;;;5024740;28;20053;-93
2021/09/02 06:30:13;;;;;;;25.13;15.23;;;13.10;79.90;;;;;;5020354;28;20531;-93
2021/09/02 06:32:41;;;;;;;28.10;14.50;;;13.20;79.90;;;;;;5041891;28;20045;-92
2021/09/02 06:35:08;;;;;;;30.55;16.65;;;13.20;80.00;;;;;;5042105;28;20053;-93
2021/09/02 06:37:35;;;;;;;29.55;15.55;;;13.30;80.10;;;;;;5027893;28;20088;-89
2021/09/02 06:40:03;;;;;;;26.63;14.88;;;13.30;80.10;;;;;;5044363;28;20076;-93
2021/09/02 06:42:30;;;;;;;26.45;14.40;;;13.40;80.10;;;;;;5029305;28;20053;-93
2021/09/02 06:44:57;;;;;;;33.50;15.85;;;13.40;80.10;;;;;;5012533;28;20080;-93
2021/09/02 06:47:24;;;;;;;23.83;14.50;;;13.40;80.20;;;;;;5037897;28;20056;-91
2021/09/02 06:49:51;;;;;;;28.23;15.05;;;13.50;80.30;;;;;;5014629;28;20056;-91
2021/09/02 06:52:17;;;;;;;32.33;15.02;;;13.50;80.20;;;;;;5018331;28;20380;-92
2021/09/02 06:54:44;;;;;;;32.42;15.60;;;13.60;80.10;;;;;;5045310;28;20049;-93
2021/09/02 06:57:11;;;;;;;28.17;15.38;;;13.70;80.10;;;;;;5028005;28;20057;-93
2021/09/02 06:59:38;;;;;;;37.33;14.75;;;13.70;80.00;;;;;;5016841;28;20115;-91
2021/09/02 07:02:05;;;;;;;22.95;13.48;;;13.80;79.90;;;;;;5012822;28;20060;-92
2021/09/02 07:04:33;;;;;;;24.17;14.60;;;13.90;79.70;;;;;;5016213;28;20057;-92
2021/09/02 07:07:00;;;;;;;26.75;14.15;;;13.90;79.50;;;;;;5012345;28;20057;-93
2021/09/02 07:09:27;;;;;;;24.63;15.02;;;13.90;79.20;;;;;;5019625;28;20041;-92
2021/09/02 07:11:54;;;;;;;28.52;15.02;;;14.00;79.00;;;;;;5014362;28;20055;-91
2021/09/02 07:14:20;;;;;;;28.15;14.65;;;14.10;78.80;;;;;;5004314;28;20060;-92
2021/09/02 07:16:48;;;;;;;25.40;13.88;;;14.10;78.80;;;;;;5033844;28;20050;-93
2021/09/02 07:19:15;;;;;;;25.33;14.85;;;14.20;78.70;;;;;;5015463;28;20058;-89
2021/09/02 07:21:42;;;;;;;21.45;13.88;;;14.30;78.50;;;;;;5003117;28;20495;-92
2021/09/02 07:24:09;;;;;;;25.58;14.20;;;14.40;78.40;;;;;;4999780;28;20061;-92
2021/09/02 07:26:37;;;;;;;29.83;15.43;;;14.40;78.30;;;;;;5014882;28;20050;-91
2021/09/02 07:29:06;;;;;;;29.38;14.85;;;14.50;78.20;;;;;;5000412;28;20057;-92
2021/09/02 07:31:35;;;;;;;27.05;15.25;;;14.60;78.20;;;;;;5003511;28;20482;-93
2021/09/02 07:34:03;;;;;;;25.92;14.70;;;14.60;77.90;;;;;;5004353;28;20061;-92
2021/09/02 07:36:30;;;;;;;27.48;13.38;;;14.70;77.70;;;;;;5003784;28;20057;-92
2021/09/02 07:39:10;;;;;;;31.45;15.73;;;14.80;77.60;;;;;;5018259;28;20486;-90
2021/09/02 07:41:38;;;;;;;28.33;16.15;;;14.90;77.50;;;;;;5000535;28;20461;-94
2021/09/02 07:44:05;;;;;;;30.15;16.67;;;14.90;77.30;;;;;;4997035;28;20046;-91
2021/09/02 07:46:32;;;;;;;30.23;17.90;;;15.00;77.10;;;;;;5005789;28;20046;-92
2021/09/02 07:48:59;;;;;;;34.72;21.23;;;15.10;76.80;;;;;;5013189;28;20054;-94
2021/09/02 07:51:26;;;;;;;35.85;23.65;;;15.10;76.50;;;;;;5018569;28;20049;-92
2021/09/02 07:53:54;;;;;;;37.70;23.70;;;15.20;75.90;;;;;;5031477;28;20049;-93
2021/09/02 07:56:21;;;;;;;44.85;26.75;;;15.30;75.70;;;;;;5036689;28;20048;-94
2021/09/02 07:58:48;;;;;;;46.45;29.55;;;15.40;75.70;;;;;;5009329;28;20471;-92
2021/09/02 08:01:15;;;;;;;43.00;28.35;;;15.50;75.30;;;;;;5009418;28;20045;-90
2021/09/02 08:03:42;;;;;;;45.55;28.05;;;15.50;75.10;;;;;;5002664;28;20042;-90
2021/09/02 08:06:10;;;;;;;44.33;29.33;;;15.60;74.90;;;;;;5031102;28;20443;-90
2021/09/02 08:08:37;;;;;;;47.28;30.23;;;15.70;74.80;;;;;;5042740;28;20503;-90
2021/09/02 08:11:04;;;;;;;48.25;31.63;;;15.80;74.30;;;;;;5003344;28;20050;-91
2021/09/02 08:13:31;;;;;;;45.42;31.50;;;15.90;73.70;;;;;;5023874;28;20046;-91
2021/09/02 08:15:58;;;;;;;44.72;31.60;;;15.90;73.40;;;;;;5014241;28;20054;-91
2021/09/02 08:18:26;;;;;;;49.38;30.83;;;16.00;73.40;;;;;;5016520;28;20504;-89
2021/09/02 08:20:53;;;;;;;44.85;28.88;;;16.10;72.90;;;;;;4999250;28;20484;-91
2021/09/02 08:23:20;;;;;;;42.92;29.10;;;16.20;72.50;;;;;;5029743;28;20443;-91
2021/09/02 08:25:47;;;;;;;37.22;27.25;;;16.20;71.80;;;;;;5018226;28;20427;-92
2021/09/02 08:28:15;;;;;;;47.78;27.70;;;16.30;71.50;;;;;;5026844;28;20467;-91
2021/09/02 08:30:42;;;;;;;36.55;26.70;;;16.40;70.60;;;;;;5003328;28;20061;-91
2021/09/02 08:33:10;;;;;;;42.47;29.70;;;16.40;70.20;;;;;;5016679;28;20054;-91
2021/09/02 08:35:37;;;;;;;46.25;30.77;;;16.50;70.20;;;;;;5019852;28;20065;-91
2021/09/02 08:38:07;;;;;;;42.08;28.80;;;16.50;70.30;;;;;;4997705;28;20046;-93
2021/09/02 08:40:38;;;;;;;40.88;28.65;;;16.60;70.30;;;;;;5004408;28;20050;-93
2021/09/02 08:43:05;;;;;;;35.72;25.42;;;16.70;69.80;;;;;;4999611;28;20041;-90
2021/09/02 08:45:33;;;;;;;36.78;24.58;;;16.90;69.60;;;;;;5018837;28;20053;-90
2021/09/02 08:48:01;;;;;;;39.72;26.45;;;16.90;69.80;;;;;;5014742;28;20060;-91
2021/09/02 08:50:33;;;;;;;34.15;25.23;;;16.90;69.40;;;;;;5002309;28;20057;-92
2021/09/02 08:53:01;;;;;;;40.38;27.55;;;17.10;69.30;;;;;;5019591;28;20069;-90
2021/09/02 08:55:29;;;;;;;38.80;27.38;;;17.20;69.30;;;;;;5019507;28;20045;-88
2021/09/02 08:57:57;;;;;;;45.20;29.17;;;17.20;68.90;;;;;;5019168;28;20056;-92
2021/09/02 09:00:25;;;;;;;44.78;28.08;;;17.30;68.60;;;;;;5016968;28;20050;-91
2021/09/02 09:03:04;;;;;;;45.15;29.77;;;17.40;68.20;;;;;;5016942;28;20069;-90
2021/09/02 09:05:34;;;;;;;41.25;30.70;;;17.40;67.90;;;;;;5019030;28;20058;-91
2021/09/02 09:08:07;;;;;;;42.20;29.70;;;17.50;67.80;;;;;;5005234;28;20046;-90
2021/09/02 09:10:34;;;;;;;45.10;30.47;;;17.60;67.90;;;;;;5026183;28;20060;-91
2021/09/02 09:13:04;;;;;;;39.50;29.52;;;17.70;68.00;;;;;;5011221;28;20350;-90
2021/09/02 09:15:34;;;;;;;45.10;30.05;;;17.80;68.30;;;;;;5013513;28;20056;-90
2021/09/02 09:18:21;;;;;;;47.08;28.45;;;17.90;67.70;;;;;;5016710;28;20483;-90
2021/09/02 09:21:13;;;;;;;38.90;27.23;;;17.90;67.70;;;;;;5029454;28;20049;-89
2021/09/02 09:24:02;;;;;;;44.30;27.92;;;18.10;67.30;;;;;;5029768;28;20061;-91
2021/09/02 09:26:31;;;;;;;35.25;25.52;;;18.20;66.90;;;;;;5018571;28;20504;-89
2021/09/02 09:29:01;;;;;;;37.13;26.02;;;18.30;66.20;;;;;;5018305;28;20574;-91
2021/09/02 09:31:32;;;;;;;37.63;26.35;;;18.40;66.00;;;;;;5019189;28;20096;-88
2021/09/02 09:34:03;;;;;;;37.40;26.00;;;18.40;65.00;;;;;;5018255;28;20142;-90
2021/09/02 09:36:31;;;;;;;37.13;25.88;;;18.40;65.60;;;;;;5033173;28;20049;-90
2021/09/02 09:39:09;;;;;;;40.03;27.60;;;18.50;65.90;;;;;;5032049;28;20088;-92
2021/09/02 09:41:42;;;;;;;41.00;27.88;;;18.60;66.20;;;;;;5029348;28;20119;-91
2021/09/02 09:44:23;;;;;;;36.40;25.23;;;18.70;65.70;;;;;;5019042;28;20521;-89
2021/09/02 09:47:08;;;;;;;38.45;26.73;;;18.80;66.30;;;;;;5018251;28;20054;-91
2021/09/02 09:49:44;;;;;;;45.92;27.67;;;18.90;65.80;;;;;;5022496;28;20103;-89
2021/09/02 09:52:28;;;;;;;45.33;24.30;;;18.90;65.30;;;;;;5025190;28;20409;-89
2021/09/02 09:55:20;;;;;;;35.83;24.77;;;19.00;65.00;;;;;;5016765;28;20459;-89
2021/09/02 09:57:47;;;;;;;33.63;24.77;;;19.10;64.70;;;;;;5028311;28;20495;-90
2021/09/02 10:00:16;;;;;;;38.05;24.63;;;19.10;63.60;;;;;;5015335;28;20104;-89
2021/09/02 10:02:49;;;;;;;34.20;22.45;;;19.20;64.10;;;;;;5011651;28;20129;-89
2021/09/02 10:05:18;;;;;;;34.95;23.13;;;19.30;63.80;;;;;;5028256;28;20393;-88
2021/09/02 10:07:47;;;;;;;31.45;21.10;;;19.30;63.80;;;;;;5029048;28;20064;-89
2021/09/02 10:10:16;;;;;;;32.63;20.70;;;19.40;64.00;;;;;;5009588;28;20413;-88
2021/09/02 10:12:45;;;;;;;31.73;19.98;;;19.40;63.40;;;;;;5018070;28;20060;-88
2021/09/02 10:15:15;;;;;;;28.98;19.33;;;19.50;63.50;;;;;;5015082;28;20500;-90
2021/09/02 10:17:44;;;;;;;32.83;18.83;;;19.70;63.80;;;;;;5028299;28;20577;-87
2021/09/02 10:20:20;;;;;;;32.63;19.50;;;19.80;63.80;;;;;;5013114;28;20115;-89
2021/09/02 10:22:49;;;;;;;27.00;18.23;;;19.90;63.60;;;;;;5017383;28;20071;-88
2021/09/02 10:28:13;;;;;;;28.00;17.10;;;20.00;62.50;;;;;;5017611;28;20464;-88
2021/09/02 10:30:40;;;;;;;29.10;18.20;;;20.10;63.00;;;;;;5028703;28;20515;-87
2021/09/02 10:33:33;;;;;;;28.80;18.73;;;20.30;63.10;;;;;;5013369;28;20056;-87
2021/09/02 10:36:01;;;;;;;28.20;17.75;;;20.40;62.60;;;;;;5019854;28;20056;-87
2021/09/02 10:38:49;;;;;;;28.08;18.73;;;20.40;62.40;;;;;;5016959;28;20062;-89
2021/09/02 10:41:45;;;;;;;32.03;19.88;;;20.50;62.20;;;;;;5017061;28;20424;-89
2021/09/02 10:44:14;;;;;;;28.48;19.77;;;20.60;61.60;;;;;;4989593;28;20060;-88
2021/09/02 10:46:46;;;;;;;30.73;20.75;;;20.60;61.70;;;;;;5021184;28;20491;-89
2021/09/02 10:49:29;;;;;;;33.60;19.67;;;20.70;61.30;;;;;;5009552;28;20068;-88
2021/09/02 10:52:27;;;;;;;30.33;19.23;;;20.80;61.00;;;;;;5017413;28;20057;-89
2021/09/02 10:54:54;;;;;;;27.25;18.10;;;20.90;61.60;;;;;;5016117;28;20520;-89
2021/09/02 10:57:36;;;;;;;24.88;17.15;;;20.90;61.60;;;;;;5028397;28;20128;-89
2021/09/02 11:00:03;;;;;;;24.92;17.75;;;21.00;61.30;;;;;;5013933;28;20100;-89
2021/09/02 11:02:31;;;;;;;34.08;19.65;;;21.10;61.30;;;;;;5028095;28;20057;-88
2021/09/02 11:05:00;;;;;;;31.70;18.00;;;21.20;61.30;;;;;;5014387;28;20041;-91
2021/09/02 11:07:44;;;;;;;28.55;18.50;;;21.20;60.50;;;;;;5021068;28;20050;-91
2021/09/02 11:10:14;;;;;;;31.67;17.55;;;21.30;60.50;;;;;;5006502;28;20049;-91
2021/09/02 11:12:41;;;;;;;25.08;17.95;;;21.40;61.20;;;;;;5025695;28;20050;-89
2021/09/02 11:15:09;;;;;;;28.35;18.25;;;21.40;59.90;;;;;;4995618;28;20396;-92
2021/09/02 11:17:37;;;;;;;22.65;15.57;;;21.50;59.80;;;;;;4995713;28;20045;-92
2021/09/02 11:20:25;;;;;;;29.33;17.40;;;21.60;60.20;;;;;;5030788;28;20135;-88
2021/09/02 11:23:10;;;;;;;26.92;18.00;;;21.60;60.10;;;;;;5004720;28;20053;-92
2021/09/02 11:25:42;;;;;;;33.50;18.35;;;21.70;59.60;;;;;;5024895;28;20050;-92
2021/09/02 11:28:10;;;;;;;29.05;16.52;;;21.80;59.20;;;;;;5009851;28;20041;-89
2021/09/02 11:30:37;;;;;;;25.63;16.65;;;21.80;59.40;;;;;;5030520;28;20053;-94
2021/09/02 11:33:08;;;;;;;24.92;16.95;;;21.80;59.00;;;;;;5025980;28;20132;-95
2021/09/02 11:35:36;;;;;;;26.42;18.55;;;21.90;59.70;;;;;;5026009;28;20073;-92
2021/09/02 11:38:05;;;;;;;26.98;17.70;;;21.90;58.60;;;;;;5040335;28;20050;-94
2021/09/02 11:40:34;;;;;;;26.17;16.05;;;21.90;59.00;;;;;;5042303;28;20071;-89
2021/09/02 11:43:03;;;;;;;24.05;16.00;;;21.90;58.90;;;;;;5022325;28;20057;-93
2021/09/02 11:45:32;;;;;;;25.55;17.13;;;22.00;59.40;;;;;;5012223;28;20054;-93
2021/09/02 11:48:06;;;;;;;32.35;15.77;;;22.10;59.50;;;;;;5005469;28;20055;-95
2021/09/02 11:50:34;;;;;;;27.85;16.48;;;22.10;59.30;;;;;;5040271;28;20119;-94
2021/09/02 11:53:02;;;;;;;25.33;15.50;;;22.20;59.20;;;;;;5041151;28;20058;-92
2021/09/02 11:55:29;;;;;;;26.85;17.38;;;22.30;58.60;;;;;;5036115;28;20053;-93
2021/09/02 11:57:59;;;;;;;25.38;17.42;;;22.30;58.60;;;;;;5029985;28;20055;-94
2021/09/02 12:00:27;;;;;;;24.50;16.05;;;22.40;58.00;;;;;;5041845;28;20566;-94
2021/09/02 12:02:58;;;;;;;27.17;16.27;;;22.40;57.90;;;;;;5045409;28;20042;-94
2021/09/02 12:05:36;;;;;;;25.33;15.20;;;22.40;58.40;;;;;;5030445;28;20079;-94
2021/09/02 12:08:06;;;;;;;26.55;16.35;;;22.40;58.30;;;;;;5030227;28;20116;-95
2021/09/02 12:10:33;;;;;;;23.15;16.08;;;22.40;58.70;;;;;;5039504;28;20057;-89
2021/09/02 12:13:25;;;;;;;25.70;16.23;;;22.50;59.60;;;;;;5035164;28;20124;-95
2021/09/02 12:16:12;;;;;;;24.65;14.73;;;22.60;59.40;;;;;;5007152;28;20049;-94
2021/09/02 12:18:42;;;;;;;24.30;14.95;;;22.70;58.00;;;;;;5012030;28;20085;-93
2021/09/02 12:21:11;;;;;;;22.90;14.23;;;22.80;57.60;;;;;;5014654;28;20037;-94
2021/09/02 12:23:48;;;;;;;27.80;14.75;;;22.90;58.20;;;;;;5039089;28;20050;-92
2021/09/02 12:26:16;;;;;;;28.73;15.77;;;22.90;58.20;;;;;;5034109;28;20050;-93
2021/09/02 12:28:45;;;;;;;25.98;15.35;;;23.10;57.70;;;;;;5020615;28;20053;-95
2021/09/02 12:31:18;;;;;;;24.10;15.38;;;23.10;57.50;;;;;;5038621;28;20040;-93
2021/09/02 12:34:08;;;;;;;26.35;15.75;;;23.20;57.60;;;;;;5040294;28;20496;-91
2021/09/02 12:36:41;;;;;;;21.98;12.95;;;23.30;57.40;;;;;;5027600;28;20034;-95
2021/09/02 12:39:21;;;;;;;21.02;12.18;;;23.40;57.00;;;;;;5024355;28;20049;-94
2021/09/02 12:42:06;;;;;;;21.90;13.63;;;23.40;57.10;;;;;;5023283;28;20062;-94